Time;durP1;ratioP1;P1;durP2;ratioP2;P2;SDS_P1;SDS_P2;PMS_P1;PMS_P2;Temp;Humidity;BMP_temperature;BMP_pressure;BME280_temperature;BME280_humidity;BME280_pressure;Samples;Min_cycle;Max_cycle;Signal;HPM_P1;HPM_P2
2024/01/21 00:00:51;;;;;;;0.50;0.10;;;-1.90;99.90;;;;;;5063010;28;20485;-76
2024/01/21 00:03:19;;;;;;;0.50;0.10;;;-2.00;99.90;;;;;;5065032;28;20800;-76
2024/01/21 00:05:48;;;;;;;0.67;0.50;;;-2.00;99.90;;;;;;5052591;28;20569;-76
2024/01/21 00:08:16;;;;;;;0.50;0.10;;;-2.00;99.90;;;;;;5053826;28;20458;-75
2024/01/21 00:10:44;;;;;;;0.50;0.17;;;-2.10;99.90;;;;;;5052381;28;20489;-75
2024/01/21 00:13:12;;;;;;;0.50;0.10;;;-2.20;99.90;;;;;;5052576;28;20996;-75
2024/01/21 00:15:40;;;;;;;0.50;0.10;;;;;;;;;;5052702;28;20537;-75
2024/01/21 00:18:08;;;;;;;0.50;0.10;;;-2.20;99.90;;;;;;5058819;28;20463;-75
2024/01/21 00:20:36;;;;;;;0.50;0.10;;;-2.20;99.90;;;;;;5052335;28;20828;-75
2024/01/21 00:23:05;;;;;;;0.50;0.10;;;-2.20;99.90;;;;;;5054766;28;20442;-75
2024/01/21 00:25:33;;;;;;;0.50;0.10;;;-2.20;99.90;;;;;;5053218;28;20495;-75
2024/01/21 00:28:01;;;;;;;0.50;0.10;;;-2.30;99.90;;;;;;5060667;28;20984;-75
2024/01/21 00:30:30;;;;;;;0.50;0.10;;;-2.30;99.90;;;;;;5059318;28;20504;-75
2024/01/21 00:32:58;;;;;;;0.50;0.10;;;0.10;99.90;;;;;;5053323;28;20454;-75
2024/01/21 00:35:26;;;;;;;0.50;0.10;;;-2.20;99.90;;;;;;5057462;28;20461;-75
2024/01/21 00:37:54;;;;;;;0.50;0.20;;;-2.20;99.90;;;;;;5056894;28;20458;-75
2024/01/21 00:40:23;;;;;;;0.50;0.20;;;-2.20;99.90;;;;;;5051638;28;20990;-75
2024/01/21 00:42:51;;;;;;;0.50;0.10;;;-2.30;99.90;;;;;;5052001;28;20477;-76
2024/01/21 00:45:19;;;;;;;0.60;0.37;;;-2.30;99.90;;;;;;5052119;28;20488;-76
2024/01/21 00:47:47;;;;;;;4.87;0.87;;;-2.40;99.90;;;;;;5070094;28;20469;-75
2024/01/21 00:50:15;;;;;;;0.57;0.17;;;-2.40;99.90;;;;;;5055863;28;20472;-75
2024/01/21 00:52:43;;;;;;;0.60;0.43;;;-2.50;99.90;;;;;;5053070;28;20446;-75
2024/01/21 00:55:11;;;;;;;0.50;0.50;;;-2.50;99.90;;;;;;5063344;28;20441;-75
2024/01/21 00:57:40;;;;;;;1.10;1.03;;;;;;;;;;5058341;28;20474;-75
2024/01/21 01:00:09;;;;;;;0.50;0.10;;;-2.50;99.90;;;;;;5052682;28;20919;-75
2024/01/21 01:02:37;;;;;;;0.50;0.20;;;-2.40;99.90;;;;;;5054562;28;20480;-75
2024/01/21 01:05:17;;;;;;;0.50;0.10;;;-2.40;99.90;;;;;;5059038;28;20485;-75
2024/01/21 01:07:47;;;;;;;0.50;0.10;;;-2.30;99.90;;;;;;5060224;28;20472;-74
2024/01/21 01:10:15;;;;;;;0.50;0.10;;;-2.30;99.90;;;;;;5055735;28;20462;-76
2024/01/21 01:12:44;;;;;;;0.50;0.10;;;-2.30;99.90;;;;;;5051394;28;20458;-76
2024/01/21 01:15:12;;;;;;;0.50;0.10;;;-2.30;99.90;;;;;;5070398;28;20491;-76
2024/01/21 01:17:40;;;;;;;0.50;0.10;;;-2.30;99.90;;;;;;5071303;28;20477;-76
2024/01/21 01:20:09;;;;;;;0.50;0.10;;;-2.50;99.90;;;;;;5055207;28;20445;-76
2024/01/21 01:22:37;;;;;;;0.50;0.10;;;-2.50;99.90;;;;;;5050148;28;20519;-74
2024/01/21 01:25:05;;;;;;;0.50;0.10;;;-2.50;99.90;;;;;;5060675;28;20515;-76
2024/01/21 01:27:33;;;;;;;0.50;0.10;;;-2.60;99.90;;;;;;5059670;28;20520;-76
2024/01/21 01:30:03;;;;;;;0.50;0.10;;;-2.70;99.90;;;;;;5055250;28;20461;-76
2024/01/21 01:32:34;;;;;;;0.50;0.10;;;-2.70;99.90;;;;;;5071590;28;20521;-77
2024/01/21 01:35:04;;;;;;;0.50;0.10;;;-2.70;99.90;;;;;;5063948;28;20462;-77
2024/01/21 01:37:32;;;;;;;0.50;0.10;;;-2.70;99.90;;;;;;5062867;28;20461;-75
2024/01/21 01:40:00;;;;;;;0.50;0.10;;;-2.70;99.90;;;;;;5062839;28;20535;-76
2024/01/21 01:42:28;;;;;;;0.50;0.10;;;-2.60;99.90;;;;;;5058738;28;20533;-76
2024/01/21 01:44:56;;;;;;;0.50;0.10;;;-2.50;99.90;;;;;;5067204;28;20468;-77
2024/01/21 01:47:25;;;;;;;0.50;0.10;;;-2.50;99.90;;;;;;5059234;28;20481;-77
2024/01/21 01:49:55;;;;;;;0.50;0.10;;;-2.50;99.90;;;;;;5051365;28;20447;-77
2024/01/21 01:52:23;;;;;;;0.60;0.43;;;-2.50;99.90;;;;;;5062872;28;20471;-77
2024/01/21 01:54:51;;;;;;;1.40;1.40;;;-2.40;99.90;;;;;;5053765;28;20457;-77
2024/01/21 01:57:21;;;;;;;0.50;0.10;;;-2.60;99.90;;;;;;5052743;28;20474;-77
2024/01/21 01:59:49;;;;;;;0.50;0.10;;;-2.40;99.90;;;;;;5062233;28;20457;-77
2024/01/21 02:02:17;;;;;;;0.50;0.10;;;-2.40;99.90;;;;;;5063319;28;20478;-75
2024/01/21 02:04:47;;;;;;;1.37;1.27;;;-2.40;99.90;;;;;;5068853;28;20957;-76
2024/01/21 02:07:14;;;;;;;0.50;0.10;;;-2.40;99.90;;;;;;5069665;28;20483;-77
2024/01/21 02:09:42;;;;;;;0.60;0.10;;;-2.40;99.90;;;;;;5050893;28;20545;-76
2024/01/21 02:12:13;;;;;;;0.50;0.10;;;-2.40;99.90;;;;;;5058863;28;20528;-75
2024/01/21 02:14:42;;;;;;;0.50;0.10;;;-2.40;99.90;;;;;;5065696;28;20445;-74
2024/01/21 02:17:10;;;;;;;0.50;0.40;;;-2.40;99.90;;;;;;5060951;28;20493;-75
2024/01/21 02:19:38;;;;;;;0.50;0.10;;;-2.50;99.80;;;;;;5063626;28;21004;-75
2024/01/21 02:22:08;;;;;;;0.50;0.40;;;-2.50;99.10;;;;;;5071070;28;20522;-76
2024/01/21 02:24:37;;;;;;;0.50;0.10;;;-2.60;97.60;;;;;;5070460;28;20532;-75
2024/01/21 02:27:05;;;;;;;0.50;0.10;;;-2.70;96.80;;;;;;5070296;28;20508;-75
2024/01/21 02:29:33;;;;;;;0.60;0.53;;;-2.70;96.60;;;;;;5058707;28;20469;-76
2024/01/21 02:32:01;;;;;;;0.60;0.33;;;-2.60;96.80;;;;;;5067778;28;20823;-75
2024/01/21 02:34:29;;;;;;;0.50;0.10;;;-2.70;95.80;;;;;;5061990;28;20545;-76
2024/01/21 02:36:57;;;;;;;2.10;2.00;;;-2.70;95.20;;;;;;5051670;28;20461;-75
2024/01/21 02:39:25;;;;;;;0.50;0.10;;;-2.70;95.10;;;;;;5051432;28;20494;-73
2024/01/21 02:41:54;;;;;;;33.30;31.40;;;-2.70;95.20;;;;;;5055338;28;20508;-75
2024/01/21 02:44:22;;;;;;;0.50;0.10;;;-2.70;95.50;;;;;;5054580;28;20537;-75
2024/01/21 02:46:50;;;;;;;0.60;0.47;;;-2.70;94.90;;;;;;5054316;28;20493;-74
2024/01/21 02:49:18;;;;;;;0.50;0.10;;;-2.80;94.30;;;;;;5055667;28;20880;-74
2024/01/21 02:51:46;;;;;;;3.80;2.93;;;-2.80;93.90;;;;;;5068833;28;20615;-75
2024/01/21 02:54:14;;;;;;;0.60;0.60;;;-2.80;93.60;;;;;;5062608;28;21052;-75
2024/01/21 02:56:42;;;;;;;0.60;0.40;;;-2.80;93.20;;;;;;5067731;28;20469;-76
2024/01/21 02:59:11;;;;;;;0.50;0.10;;;-2.80;93.60;;;;;;5056227;28;20508;-75
2024/01/21 03:01:42;;;;;;;0.50;0.10;;;-2.80;93.50;;;;;;5060727;28;20469;-75
2024/01/21 03:04:11;;;;;;;0.50;0.40;;;-2.90;93.40;;;;;;5063672;28;20453;-75
2024/01/21 03:06:39;;;;;;;0.50;0.10;;;-2.80;92.90;;;;;;5064035;28;20580;-75
2024/01/21 03:09:07;;;;;;;0.50;0.10;;;-2.80;93.00;;;;;;5066757;28;20438;-75
2024/01/21 03:11:38;;;;;;;0.50;0.10;;;-2.90;92.80;;;;;;5060600;28;20474;-75
2024/01/21 03:14:07;;;;;;;0.50;0.10;;;-2.90;91.80;;;;;;5057075;28;20445;-75
2024/01/21 03:16:36;;;;;;;0.50;0.20;;;-3.00;91.50;;;;;;5058842;28;20833;-75
2024/01/21 03:19:04;;;;;;;0.50;0.10;;;-3.00;91.90;;;;;;5067976;28;20751;-75
2024/01/21 03:21:32;;;;;;;0.50;0.10;;;-3.00;92.20;;;;;;5073736;28;20473;-75
2024/01/21 03:24:00;;;;;;;0.50;0.10;;;-3.00;92.50;;;;;;5067521;28;20458;-76
2024/01/21 03:26:28;;;;;;;0.50;0.10;;;-2.90;92.90;;;;;;5058361;28;20477;-75
2024/01/21 03:28:57;;;;;;;0.50;0.10;;;-2.90;93.30;;;;;;5058149;28;20902;-76
2024/01/21 03:31:25;;;;;;;0.50;0.10;;;-2.80;94.30;;;;;;5071534;28;20503;-73
2024/01/21 03:33:54;;;;;;;0.50;0.10;;;-2.70;94.60;;;;;;5078777;28;20829;-76
2024/01/21 03:36:22;;;;;;;0.50;0.10;;;-2.70;94.30;;;;;;5077273;28;20490;-74
2024/01/21 03:38:51;;;;;;;0.50;0.10;;;-2.70;93.50;;;;;;5075614;28;20496;-76
2024/01/21 03:41:19;;;;;;;0.50;0.10;;;-2.70;92.40;;;;;;5066881;28;20449;-74
2024/01/21 03:43:47;;;;;;;0.50;0.10;;;-2.70;92.10;;;;;;5056832;28;20969;-74
2024/01/21 03:46:15;;;;;;;0.50;0.10;;;-2.70;91.30;;;;;;5053566;28;20470;-75
2024/01/21 03:48:43;;;;;;;0.50;0.10;;;-2.70;90.80;;;;;;5064212;28;20441;-75
2024/01/21 03:51:12;;;;;;;0.50;0.10;;;-2.70;90.70;;;;;;5062735;28;20883;-74
2024/01/21 03:53:41;;;;;;;0.50;0.10;;;-2.70;90.10;;;;;;5053640;28;20476;-75
2024/01/21 03:56:16;;;;;;;0.50;0.10;;;-2.80;90.00;;;;;;5055366;28;20494;-74
2024/01/21 03:58:44;;;;;;;24.27;17.67;;;-2.70;90.30;;;;;;5059113;28;20477;-75
2024/01/21 04:01:12;;;;;;;0.50;0.10;;;-2.70;90.10;;;;;;5071061;28;20445;-75
2024/01/21 04:03:41;;;;;;;0.50;0.10;;;;;;;;;;5072495;28;20872;-75
2024/01/21 04:06:09;;;;;;;0.50;0.20;;;-2.80;88.50;;;;;;5072173;28;20473;-75
2024/01/21 04:08:38;;;;;;;3.83;3.67;;;-3.00;85.60;;;;;;5072608;28;20531;-75
2024/01/21 04:11:06;;;;;;;0.50;0.10;;;-3.00;85.00;;;;;;5063552;28;20473;-74
2024/01/21 04:13:34;;;;;;;0.50;0.10;;;-3.00;87.90;;;;;;5059164;28;20985;-73
2024/01/21 04:16:02;;;;;;;0.50;0.10;;;-3.00;89.90;;;;;;5054290;28;20497;-75
2024/01/21 04:18:29;;;;;;;2.10;2.00;;;-2.90;91.10;;;;;;5071911;28;20438;-74
2024/01/21 04:21:00;;;;;;;0.60;0.57;;;-2.90;91.20;;;;;;5053378;28;20748;-75
2024/01/21 04:23:28;;;;;;;2.23;2.07;;;-3.00;90.50;;;;;;5052136;28;20442;-74
2024/01/21 04:25:58;;;;;;;1.77;1.53;;;-3.10;90.40;;;;;;5058871;28;20437;-72
2024/01/21 04:28:27;;;;;;;0.50;0.10;;;-3.10;90.80;;;;;;5054553;28;20489;-75
2024/01/21 04:30:55;;;;;;;0.50;0.10;;;-3.00;92.30;;;;;;5070927;28;20442;-74
2024/01/21 04:33:23;;;;;;;0.50;0.10;;;-3.00;93.10;;;;;;5072308;28;20457;-74
2024/01/21 04:35:51;;;;;;;0.50;0.10;;;-3.00;92.10;;;;;;5072180;28;20449;-73
2024/01/21 04:38:21;;;;;;;4.83;2.93;;;-3.10;92.00;;;;;;5071310;28;20454;-74
2024/01/21 04:40:49;;;;;;;0.50;0.10;;;-3.10;92.00;;;;;;5066041;28;21029;-74
2024/01/21 04:43:18;;;;;;;0.50;0.10;;;-3.00;93.30;;;;;;5053543;28;20541;-75
2024/01/21 04:45:46;;;;;;;0.50;0.10;;;-2.90;94.30;;;;;;5063272;28;20548;-74
2024/01/21 04:48:14;;;;;;;0.50;0.10;;;-2.80;95.50;;;;;;5061007;28;20490;-75
2024/01/21 04:50:42;;;;;;;0.50;0.10;;;-2.70;95.80;;;;;;5052400;28;20444;-74
2024/01/21 04:53:10;;;;;;;0.50;0.10;;;-2.80;95.50;;;;;;5067884;28;20884;-73
2024/01/21 04:55:38;;;;;;;0.60;0.57;;;-2.70;94.90;;;;;;5071540;28;20480;-75
2024/01/21 04:58:05;;;;;;;0.50;0.10;;;-2.70;94.50;;;;;;5068536;28;20535;-75
2024/01/21 05:00:35;;;;;;;0.50;0.10;;;-2.60;94.20;;;;;;5062202;28;20887;-75
2024/01/21 05:03:03;;;;;;;0.50;0.10;;;-2.60;93.80;;;;;;5062302;28;20902;-75
2024/01/21 05:05:31;;;;;;;0.50;0.10;;;-2.60;93.30;;;;;;5070330;28;20449;-75
2024/01/21 05:07:59;;;;;;;0.50;0.10;;;-2.60;93.00;;;;;;5064100;28;20525;-75
2024/01/21 05:10:26;;;;;;;6.03;1.90;;;-2.60;92.30;;;;;;5053413;28;20443;-75
2024/01/21 05:12:54;;;;;;;5.50;0.67;;;-2.60;91.50;;;;;;5059121;28;20446;-76
2024/01/21 05:15:22;;;;;;;0.50;0.10;;;-2.70;88.90;;;;;;5055231;28;20550;-73
2024/01/21 05:17:52;;;;;;;0.50;0.10;;;-2.90;86.10;;;;;;5068104;28;20526;-74
2024/01/21 05:20:20;;;;;;;0.50;0.10;;;-3.00;83.70;;;;;;5071099;28;20437;-75
2024/01/21 05:22:47;;;;;;;0.50;0.17;;;-3.00;82.00;;;;;;5070908;28;20533;-75
2024/01/21 05:25:15;;;;;;;0.50;0.10;;;-3.10;79.50;;;;;;5067588;28;20460;-75
2024/01/21 05:27:42;;;;;;;0.50;0.10;;;-3.20;75.70;;;;;;5063552;28;20481;-75
2024/01/21 05:30:12;;;;;;;0.50;0.10;;;-3.30;74.20;;;;;;5070538;28;20815;-75
2024/01/21 05:32:40;;;;;;;0.50;0.10;;;-3.30;73.60;;;;;;5068664;28;20929;-75
2024/01/21 05:35:10;;;;;;;0.50;0.10;;;-3.40;73.50;;;;;;5050994;28;20450;-75
2024/01/21 05:37:38;;;;;;;0.50;0.10;;;-3.40;71.90;;;;;;5062497;28;20999;-75
2024/01/21 05:40:08;;;;;;;0.60;0.50;;;-3.50;70.00;;;;;;5054332;28;20528;-75
2024/01/21 05:42:36;;;;;;;0.50;0.37;;;-3.50;70.20;;;;;;5053213;28;20465;-75
2024/01/21 05:45:05;;;;;;;0.50;0.20;;;-3.60;69.50;;;;;;5066381;28;20441;-75
2024/01/21 05:47:33;;;;;;;0.50;0.10;;;-3.60;68.50;;;;;;5070344;28;20493;-75
2024/01/21 05:50:00;;;;;;;0.50;0.10;;;-3.70;69.20;;;;;;5070451;28;20438;-74
2024/01/21 05:52:30;;;;;;;1.60;1.50;;;-3.80;67.70;;;;;;5070081;28;21297;-74
2024/01/21 05:54:58;;;;;;;0.50;0.10;;;-3.90;66.80;;;;;;5061495;28;20510;-76
2024/01/21 05:57:26;;;;;;;0.50;0.20;;;-4.10;64.70;;;;;;5060109;28;20472;-73
2024/01/21 05:59:53;;;;;;;0.50;0.30;;;-4.10;66.90;;;;;;5063320;28;20948;-75
2024/01/21 06:02:21;;;;;;;6.70;2.93;;;-4.10;72.00;;;;;;5070392;28;20509;-75
2024/01/21 06:04:50;;;;;;;2.37;2.17;;;-4.20;74.70;;;;;;5069831;28;20498;-75
2024/01/21 06:07:18;;;;;;;0.70;0.67;;;-4.30;78.80;;;;;;5070338;28;20519;-74
2024/01/21 06:09:47;;;;;;;2.00;1.90;;;-4.40;83.80;;;;;;5070315;28;20481;-75
2024/01/21 06:12:15;;;;;;;4.70;1.80;;;-4.50;89.00;;;;;;5070632;28;20873;-75
2024/01/21 06:14:44;;;;;;;0.50;0.10;;;-4.50;92.30;;;;;;5066187;28;20834;-75
2024/01/21 06:17:12;;;;;;;0.60;0.50;;;-4.40;95.60;;;;;;5072834;28;20490;-74
2024/01/21 06:19:39;;;;;;;0.50;0.10;;;-4.40;99.30;;;;;;5074248;28;20433;-74
2024/01/21 06:22:08;;;;;;;1.47;1.37;;;;;;;;;;5074668;28;20452;-75
2024/01/21 06:24:36;;;;;;;0.60;0.50;;;-4.40;99.90;;;;;;5073661;28;20551;-75
2024/01/21 06:27:05;;;;;;;0.50;0.10;;;-4.40;99.90;;;;;;5074139;28;20944;-74
2024/01/21 06:29:33;;;;;;;0.60;0.43;;;-4.30;99.90;;;;;;5074059;28;20528;-74
2024/01/21 06:32:01;;;;;;;0.50;0.10;;;-4.10;99.90;;;;;;5073377;28;20471;-74
2024/01/21 06:34:29;;;;;;;7.93;2.53;;;-4.00;99.90;;;;;;5057155;28;20517;-74
2024/01/21 06:36:57;;;;;;;0.50;0.10;;;-3.90;99.90;;;;;;5054941;28;20553;-73
2024/01/21 06:39:25;;;;;;;0.50;0.10;;;-3.70;99.90;;;;;;5054246;28;20957;-73
2024/01/21 06:41:53;;;;;;;0.50;0.30;;;-3.80;99.90;;;;;;5054711;28;20453;-75
2024/01/21 06:44:22;;;;;;;0.83;0.83;;;-3.80;99.90;;;;;;5062285;28;20524;-75
2024/01/21 06:46:55;;;;;;;0.50;0.10;;;-3.70;99.90;;;;;;5073920;28;20491;-75
2024/01/21 06:49:23;;;;;;;0.50;0.10;;;-3.60;99.90;;;;;;5072654;28;20576;-75
2024/01/21 06:51:54;;;;;;;12.87;3.93;;;-3.60;99.90;;;;;;5073975;28;20523;-74
2024/01/21 06:54:22;;;;;;;14.07;10.03;;;-3.70;99.90;;;;;;5065157;28;20446;-73
2024/01/21 06:56:50;;;;;;;2.20;2.03;;;-3.80;99.90;;;;;;5053343;28;20489;-74
2024/01/21 06:59:18;;;;;;;5.40;1.90;;;-3.80;99.90;;;;;;5053399;28;20525;-73
2024/01/21 07:01:47;;;;;;;2.00;1.47;;;-3.80;99.90;;;;;;5054186;28;20435;-74
2024/01/21 07:04:15;;;;;;;4.63;2.63;;;-3.80;99.90;;;;;;5073653;28;20528;-74
2024/01/21 07:06:43;;;;;;;1.57;1.47;;;-3.90;99.90;;;;;;5061716;28;20581;-74
2024/01/21 07:09:12;;;;;;;2.30;1.20;;;-3.80;99.90;;;;;;5064451;28;20895;-75
2024/01/21 07:11:41;;;;;;;5.27;4.67;;;-3.80;99.90;;;;;;5073902;28;20440;-75
2024/01/21 07:14:09;;;;;;;0.50;0.10;;;-3.80;99.90;;;;;;5052932;28;20450;-75
2024/01/21 07:16:38;;;;;;;1.80;1.70;;;-3.70;99.90;;;;;;5053211;28;20562;-75
2024/01/21 07:19:07;;;;;;;0.80;0.57;;;-3.70;99.90;;;;;;5054242;28;20991;-75
2024/01/21 07:21:35;;;;;;;0.50;0.10;;;;;;;;;;5070455;28;20568;-74
2024/01/21 07:24:03;;;;;;;0.50;0.10;;;-3.60;99.90;;;;;;5062637;28;20441;-74
2024/01/21 07:26:31;;;;;;;0.50;0.10;;;-3.50;99.90;;;;;;5057188;28;20476;-75
2024/01/21 07:28:59;;;;;;;0.50;0.10;;;-3.50;99.90;;;;;;5074046;28;20575;-75
2024/01/21 07:31:27;;;;;;;0.50;0.10;;;-3.40;99.90;;;;;;5074745;28;20473;-73
2024/01/21 07:33:55;;;;;;;0.50;0.10;;;-3.40;99.90;;;;;;5058481;28;20446;-74
2024/01/21 07:36:24;;;;;;;0.67;0.50;;;-3.30;99.90;;;;;;5062072;28;20477;-74
2024/01/21 07:38:52;;;;;;;0.50;0.10;;;-3.20;99.90;;;;;;5071658;28;20436;-73
2024/01/21 07:41:20;;;;;;;0.50;0.10;;;-3.20;99.90;;;;;;5073916;28;20457;-73
2024/01/21 07:43:48;;;;;;;0.50;0.10;;;-3.20;99.90;;;;;;5071535;28;20543;-74
2024/01/21 07:46:16;;;;;;;0.70;0.70;;;-3.20;99.90;;;;;;5067118;28;20461;-74
2024/01/21 07:48:44;;;;;;;0.50;0.10;;;-3.20;99.90;;;;;;5074413;28;20479;-74
2024/01/21 07:51:12;;;;;;;0.50;0.10;;;-3.20;99.90;;;;;;5073786;28;20821;-75
2024/01/21 07:53:41;;;;;;;0.60;0.53;;;-3.10;99.90;;;;;;5073535;28;20769;-76
2024/01/21 07:56:10;;;;;;;0.50;0.20;;;-3.10;99.90;;;;;;5065900;28;20481;-74
2024/01/21 07:58:38;;;;;;;0.50;0.10;;;-3.10;99.90;;;;;;5064262;28;20438;-75
2024/01/21 08:01:10;;;;;;;0.67;0.67;;;-3.00;99.90;;;;;;5060092;28;20553;-76
2024/01/21 08:03:39;;;;;;;1.80;1.70;;;-3.00;99.90;;;;;;5062678;28;20934;-75
2024/01/21 08:06:08;;;;;;;0.50;0.20;;;-2.90;99.90;;;;;;5061075;28;20453;-73
2024/01/21 08:08:37;;;;;;;3.40;2.00;;;-2.90;99.90;;;;;;5063457;28;20941;-77
2024/01/21 08:11:06;;;;;;;1.33;1.23;;;;;;;;;;5063007;28;20469;-76
2024/01/21 08:13:34;;;;;;;0.97;0.77;;;-2.90;99.90;;;;;;5061019;28;20501;-75
2024/01/21 08:16:02;;;;;;;1.67;0.57;;;-2.80;99.90;;;;;;5060345;28;20458;-75
2024/01/21 08:18:30;;;;;;;1.23;1.10;;;-2.90;99.90;;;;;;5058701;28;20453;-76
2024/01/21 08:21:03;;;;;;;0.50;0.10;;;-2.90;99.90;;;;;;5060541;28;20942;-75
2024/01/21 08:23:31;;;;;;;1.27;1.27;;;-3.00;99.90;;;;;;5060882;28;20442;-73
2024/01/21 08:26:00;;;;;;;1.07;0.93;;;-0.10;99.90;;;;;;5061107;28;20473;-75
2024/01/21 08:28:30;;;;;;;0.50;0.37;;;-3.00;99.90;;;;;;5059173;28;20474;-76
2024/01/21 08:30:57;;;;;;;0.50;0.10;;;-2.90;99.90;;;;;;5065478;28;20542;-75
2024/01/21 08:33:25;;;;;;;0.50;0.10;;;-2.90;99.90;;;;;;5067330;28;20450;-76
2024/01/21 08:35:54;;;;;;;0.60;0.30;;;-2.80;99.90;;;;;;5071661;28;20438;-75
2024/01/21 08:38:22;;;;;;;1.07;0.90;;;-2.80;99.90;;;;;;5075113;28;20499;-75
2024/01/21 08:40:50;;;;;;;8.17;5.50;;;-2.90;99.90;;;;;;5077991;28;20443;-75
2024/01/21 08:43:18;;;;;;;0.50;0.40;;;-2.90;99.90;;;;;;5078958;28;20491;-74
2024/01/21 08:45:47;;;;;;;0.50;0.20;;;-2.90;99.90;;;;;;5077831;28;20438;-76
2024/01/21 08:48:15;;;;;;;0.50;0.10;;;-2.90;99.90;;;;;;5086319;28;20530;-76
2024/01/21 08:50:44;;;;;;;0.50;0.10;;;-2.80;99.90;;;;;;5075150;28;20490;-75
2024/01/21 08:53:12;;;;;;;0.50;0.10;;;-2.80;99.90;;;;;;5080912;28;20430;-76
2024/01/21 08:55:40;;;;;;;0.50;0.10;;;-5.00;99.90;;;;;;5076272;28;20458;-74
2024/01/21 08:58:09;;;;;;;0.50;0.23;;;;;;;;;;5075293;28;20492;-75
2024/01/21 09:00:37;;;;;;;2.57;2.47;;;-2.60;99.90;;;;;;5087746;28;20476;-75
2024/01/21 09:03:07;;;;;;;0.50;0.10;;;-2.50;99.90;;;;;;5085458;28;20488;-75
2024/01/21 09:05:36;;;;;;;0.50;0.10;;;-2.50;99.90;;;;;;5075988;28;20473;-76
2024/01/21 09:08:04;;;;;;;0.50;0.10;;;;;;;;;;5081967;28;20469;-75
2024/01/21 09:10:33;;;;;;;0.50;0.10;;;-2.40;99.90;;;;;;5075882;28;20539;-75
2024/01/21 09:13:01;;;;;;;0.50;0.10;;;-3.20;99.90;;;;;;5087963;28;20463;-75
2024/01/21 09:15:29;;;;;;;0.50;0.20;;;-2.30;99.90;;;;;;5074012;28;20446;-75
2024/01/21 09:17:58;;;;;;;1.17;1.07;;;-2.30;99.90;;;;;;5070468;28;20461;-76
2024/01/21 09:20:28;;;;;;;4.97;3.07;;;-2.30;99.90;;;;;;5060180;28;20434;-75
2024/01/21 09:22:56;;;;;;;3.83;3.03;;;-2.20;99.90;;;;;;5054129;28;20801;-76
2024/01/21 09:25:24;;;;;;;2.83;2.73;;;-2.40;99.30;;;;;;5062203;28;20538;-75
2024/01/21 09:27:51;;;;;;;4.73;0.83;;;-2.40;99.60;;;;;;5056887;28;20563;-74
2024/01/21 09:30:20;;;;;;;0.50;0.10;;;;;;;;;;5072327;28;20477;-75
2024/01/21 09:32:48;;;;;;;0.70;0.20;;;-2.40;99.90;;;;;;5053517;28;20458;-76
2024/01/21 09:35:16;;;;;;;0.60;0.40;;;-2.30;99.90;;;;;;5056967;28;20461;-76
2024/01/21 09:37:45;;;;;;;0.50;0.10;;;-2.20;99.90;;;;;;5070941;28;20464;-75
2024/01/21 09:40:13;;;;;;;0.50;0.10;;;-2.20;99.90;;;;;;5072972;28;20539;-73
2024/01/21 09:42:41;;;;;;;0.50;0.10;;;-2.10;99.90;;;;;;5087405;28;20456;-75
2024/01/21 09:45:11;;;;;;;0.50;0.10;;;-2.00;99.90;;;;;;5089097;28;20437;-74
2024/01/21 09:47:40;;;;;;;1.10;1.00;;;-2.00;99.90;;;;;;5079068;28;20474;-75
2024/01/21 09:50:10;;;;;;;0.60;0.40;;;-2.00;99.90;;;;;;5080031;28;20481;-75
2024/01/21 09:52:38;;;;;;;0.60;0.40;;;-2.00;99.90;;;;;;5076751;28;20531;-77
2024/01/21 09:55:08;;;;;;;4.00;1.53;;;-2.10;99.90;;;;;;5073857;28;20418;-75
2024/01/21 09:57:38;;;;;;;4.63;3.30;;;-2.10;99.90;;;;;;5081224;28;20577;-77
2024/01/21 10:00:10;;;;;;;2.30;2.10;;;-2.30;99.90;;;;;;5088941;28;20429;-77
2024/01/21 10:02:39;;;;;;;14.20;6.43;;;-2.50;99.90;;;;;;5080653;28;20480;-76
2024/01/21 10:05:08;;;;;;;4.60;4.20;;;-2.60;99.90;;;;;;5075190;28;20438;-79
2024/01/21 10:07:37;;;;;;;1.40;1.37;;;-2.60;99.90;;;;;;5075908;28;20470;-75
2024/01/21 10:10:07;;;;;;;17.70;8.80;;;-2.60;99.90;;;;;;5075777;28;20482;-76
2024/01/21 10:12:35;;;;;;;14.83;6.00;;;-2.70;99.90;;;;;;5069681;28;20469;-74
2024/01/21 10:15:04;;;;;;;13.60;6.47;;;-2.70;99.90;;;;;;5063937;28;20471;-75
2024/01/21 10:17:31;;;;;;;4.73;3.13;;;-2.80;99.90;;;;;;5062562;28;20478;-73
2024/01/21 10:20:00;;;;;;;2.77;2.53;;;-3.00;99.90;;;;;;5073543;28;20438;-74
2024/01/21 10:22:28;;;;;;;9.00;5.23;;;-3.10;99.90;;;;;;5067932;28;20433;-74
2024/01/21 10:24:58;;;;;;;18.53;2.13;;;-3.20;99.90;;;;;;5066038;28;20437;-75
2024/01/21 10:27:27;;;;;;;2.67;2.23;;;-3.20;99.90;;;;;;5075017;28;21056;-74
2024/01/21 10:29:57;;;;;;;8.63;3.70;;;-3.20;99.90;;;;;;5057720;28;20550;-75
2024/01/21 10:32:27;;;;;;;11.20;4.87;;;-3.10;99.90;;;;;;5067594;28;20957;-75
2024/01/21 10:34:56;;;;;;;15.70;4.27;;;-3.00;99.90;;;;;;5058792;28;20514;-75
2024/01/21 10:37:27;;;;;;;0.50;0.10;;;-3.00;99.90;;;;;;5068257;28;20548;-75
2024/01/21 10:39:56;;;;;;;1.33;1.23;;;-2.90;99.90;;;;;;5074481;28;20961;-75
2024/01/21 10:42:24;;;;;;;0.50;0.10;;;-2.80;99.90;;;;;;5060943;28;20462;-75
2024/01/21 10:44:54;;;;;;;0.50;0.10;;;-2.60;99.90;;;;;;5059286;28;20544;-75
2024/01/21 10:47:22;;;;;;;0.50;0.20;;;-2.50;99.90;;;;;;5070289;28;20475;-73
2024/01/21 10:49:50;;;;;;;11.90;10.87;;;-2.40;99.90;;;;;;5066734;28;20437;-75
2024/01/21 10:52:20;;;;;;;0.90;0.73;;;-2.30;99.90;;;;;;5059642;28;20481;-77
2024/01/21 10:54:48;;;;;;;1.03;1.03;;;-2.10;99.90;;;;;;5054185;28;20537;-76
2024/01/21 10:57:17;;;;;;;3.30;1.90;;;-2.00;99.90;;;;;;5053520;28;20477;-74
2024/01/21 10:59:46;;;;;;;1.30;1.20;;;-1.90;99.90;;;;;;5055934;28;20961;-74
2024/01/21 11:02:20;;;;;;;1.80;1.70;;;-1.80;99.90;;;;;;5072439;28;20898;-75
2024/01/21 11:04:48;;;;;;;0.50;0.10;;;-1.70;99.90;;;;;;5072086;28;20454;-74
2024/01/21 11:07:18;;;;;;;1.80;1.70;;;-1.70;99.90;;;;;;5068578;28;20548;-75
2024/01/21 11:09:48;;;;;;;0.50;0.10;;;-1.60;99.90;;;;;;5062020;28;20954;-75
2024/01/21 11:12:16;;;;;;;0.50;0.10;;;-1.50;99.90;;;;;;5052647;28;20517;-75
2024/01/21 11:14:44;;;;;;;16.27;4.53;;;-1.40;99.90;;;;;;5064093;28;20452;-74
2024/01/21 11:17:17;;;;;;;1.53;1.43;;;-1.50;99.90;;;;;;5068106;28;20539;-75
2024/01/21 11:19:52;;;;;;;0.50;0.10;;;-1.50;99.90;;;;;;5061576;28;20441;-75
2024/01/21 11:22:23;;;;;;;27.33;10.80;;;-1.50;99.90;;;;;;5064640;28;20929;-75
2024/01/21 11:24:53;;;;;;;0.50;0.10;;;-1.50;99.90;;;;;;5054223;28;21025;-74
2024/01/21 11:27:22;;;;;;;6.13;4.97;;;-1.40;99.90;;;;;;5053379;28;20476;-74
2024/01/21 11:29:51;;;;;;;6.80;2.93;;;-1.50;99.90;;;;;;5055757;28;20468;-75
2024/01/21 11:32:25;;;;;;;0.70;0.57;;;-1.60;99.90;;;;;;5053759;28;20561;-75
2024/01/21 11:34:57;;;;;;;0.70;0.60;;;-1.60;99.90;;;;;;5058352;28;20442;-75
2024/01/21 11:37:25;;;;;;;0.50;0.10;;;-1.50;99.90;;;;;;5061461;28;20576;-75
2024/01/21 11:39:53;;;;;;;0.50;0.10;;;-1.40;99.90;;;;;;5060430;28;20508;-75
2024/01/21 11:42:22;;;;;;;11.10;2.53;;;-1.30;99.90;;;;;;5065846;28;21004;-76
2024/01/21 11:44:50;;;;;;;2.00;0.57;;;;;;;;;;5053814;28;20461;-75
2024/01/21 11:47:18;;;;;;;2.87;2.67;;;-1.20;99.90;;;;;;5057804;28;20485;-75
2024/01/21 11:49:46;;;;;;;2.33;1.33;;;-1.10;99.90;;;;;;5051500;28;20530;-75
2024/01/21 11:52:15;;;;;;;5.90;3.10;;;-1.00;99.90;;;;;;5057500;28;20481;-75
2024/01/21 11:54:43;;;;;;;2.60;2.40;;;-0.90;99.90;;;;;;5058614;28;20532;-75
2024/01/21 11:57:11;;;;;;;0.60;0.20;;;-0.70;99.90;;;;;;5063396;28;20497;-76
2024/01/21 11:59:39;;;;;;;7.50;4.10;;;-0.60;99.90;;;;;;5058754;28;20464;-76
2024/01/21 12:02:08;;;;;;;1.63;0.67;;;-0.50;99.90;;;;;;5051790;28;20623;-75
2024/01/21 12:04:38;;;;;;;0.50;0.10;;;-0.50;99.90;;;;;;5056206;28;20911;-75
2024/01/21 12:07:06;;;;;;;12.97;7.77;;;-0.50;99.90;;;;;;5064314;28;20954;-75
2024/01/21 12:09:36;;;;;;;1.37;1.27;;;-0.60;99.90;;;;;;5056526;28;20450;-76
2024/01/21 12:12:08;;;;;;;4.40;4.10;;;-0.60;99.90;;;;;;5055748;28;20939;-74
2024/01/21 12:14:36;;;;;;;0.73;0.70;;;-0.60;99.90;;;;;;5055301;28;20462;-75
2024/01/21 12:17:04;;;;;;;1.00;0.90;;;-0.70;99.90;;;;;;5056083;28;20542;-74
2024/01/21 12:19:32;;;;;;;6.70;6.07;;;-0.50;99.90;;;;;;5050977;28;20432;-75
2024/01/21 12:22:00;;;;;;;12.70;6.10;;;;;;;;;;5051367;28;20434;-75
2024/01/21 12:24:28;;;;;;;0.50;0.10;;;-0.40;99.90;;;;;;5051162;28;20523;-74
2024/01/21 12:26:58;;;;;;;6.60;4.20;;;-0.30;99.90;;;;;;5051900;28;20454;-74
2024/01/21 12:29:36;;;;;;;1.13;0.93;;;-0.20;99.90;;;;;;5058102;28;20480;-74
2024/01/21 12:32:05;;;;;;;0.73;0.30;;;-0.10;99.90;;;;;;5068137;28;20567;-74
2024/01/21 12:34:34;;;;;;;7.80;4.50;;;0.00;99.90;;;;;;5061051;28;20445;-74
2024/01/21 12:37:02;;;;;;;0.60;0.40;;;0.00;99.90;;;;;;5055339;28;21073;-74
2024/01/21 12:39:30;;;;;;;0.50;0.10;;;0.00;99.90;;;;;;5063263;28;20851;-75
2024/01/21 12:41:59;;;;;;;4.63;3.70;;;0.10;99.90;;;;;;5065400;28;20442;-74
2024/01/21 12:44:27;;;;;;;2.57;2.43;;;0.10;99.90;;;;;;5061555;28;20727;-74
2024/01/21 12:46:56;;;;;;;0.50;0.20;;;0.20;99.90;;;;;;5074706;28;20511;-75
2024/01/21 12:49:24;;;;;;;0.50;0.10;;;0.30;99.90;;;;;;5063037;28;20471;-75
2024/01/21 12:51:52;;;;;;;0.50;0.10;;;0.40;99.90;;;;;;5054794;28;20573;-75
2024/01/21 12:54:20;;;;;;;13.50;4.40;;;0.40;99.90;;;;;;5053082;28;20446;-73
2024/01/21 12:56:48;;;;;;;17.43;9.33;;;0.30;99.90;;;;;;5056806;28;20994;-73